createdAt,value
2023-05-09T00:00:47.356Z,101887.84
2023-05-09T00:03:14.509Z,101865.22
2023-05-09T00:05:42.040Z,101874.53
2023-05-09T00:08:08.718Z,101892.19
2023-05-09T00:10:35.765Z,101878.38
2023-05-09T00:13:02.497Z,101900.72
2023-05-09T00:15:28.953Z,101899.28
2023-05-09T00:17:55.796Z,101895.88
2023-05-09T00:20:23.038Z,101864.56
2023-05-09T00:22:50.096Z,101849.41
2023-05-09T00:25:17.115Z,101865.25
2023-05-09T00:27:47.068Z,101895.09
2023-05-09T00:30:13.780Z,101860.69
2023-05-09T00:32:41.691Z,101908.31
2023-05-09T00:35:10.923Z,101874.75
2023-05-09T00:37:37.864Z,101861.53
2023-05-09T00:40:06.567Z,101896.19
2023-05-09T00:42:33.559Z,101896.59
2023-05-09T00:45:00.236Z,101897.00
2023-05-09T00:47:27.800Z,101893.56
2023-05-09T00:49:55.062Z,101891.47
2023-05-09T00:52:23.515Z,101889.50
2023-05-09T00:54:54.964Z,101883.63
2023-05-09T00:57:22.509Z,101893.03
2023-05-09T00:59:49.504Z,101882.16
2023-05-09T01:02:17.894Z,101873.34
2023-05-09T01:04:45.962Z,101883.59
2023-05-09T01:07:38.111Z,101876.72
2023-05-09T01:10:10.908Z,101871.91
2023-05-09T01:12:56.252Z,101850.59
2023-05-09T01:15:36.942Z,101873.56
2023-05-09T01:18:16.358Z,101854.63
2023-05-09T01:20:47.055Z,101864.38
2023-05-09T01:23:44.680Z,101872.38
2023-05-09T01:26:29.612Z,101871.63
2023-05-09T01:29:12.602Z,101878.03
2023-05-09T01:31:44.321Z,101858.53
2023-05-09T01:34:14.881Z,101849.03
2023-05-09T02:01:40.975Z,101834.44
2023-05-09T02:04:08.096Z,101833.44
2023-05-09T02:06:36.202Z,101861.69
2023-05-09T02:09:03.088Z,101851.22
2023-05-09T02:11:29.610Z,101862.25
2023-05-09T02:13:56.347Z,101846.09
2023-05-09T02:16:22.977Z,101856.97
2023-05-09T02:18:49.557Z,101840.44
2023-05-09T02:21:16.108Z,101811.16
2023-05-09T02:23:46.801Z,101809.03
2023-05-09T02:26:14.388Z,101810.59
2023-05-09T02:28:43.489Z,101849.41
2023-05-09T02:31:12.781Z,101816.88
2023-05-09T02:33:44.716Z,101843.16
2023-05-09T02:36:16.871Z,101835.00
2023-05-09T02:38:44.271Z,101842.06
2023-05-09T02:41:15.233Z,101818.16
2023-05-09T02:43:42.704Z,101811.94
2023-05-09T02:46:10.538Z,101863.88
2023-05-09T02:48:38.622Z,101839.84
2023-05-09T02:51:08.183Z,101816.25
2023-05-09T02:53:36.912Z,101815.38
2023-05-09T02:56:04.575Z,101824.56
2023-05-09T02:58:31.082Z,101845.78
2023-05-09T03:00:57.579Z,101812.81
2023-05-09T03:03:27.850Z,101838.06
2023-05-09T03:06:01.945Z,101818.72
2023-05-09T03:08:32.746Z,101800.66
2023-05-09T03:10:59.312Z,101804.88
2023-05-09T03:13:26.488Z,101843.88
2023-05-09T03:15:53.732Z,101792.25
2023-05-09T03:18:20.639Z,101798.06
2023-05-09T03:20:47.138Z,101829.28
2023-05-09T03:23:14.068Z,101793.63
2023-05-09T03:25:40.808Z,101814.16
2023-05-09T03:28:08.837Z,101845.25
2023-05-09T03:30:41.459Z,101840.59
2023-05-09T03:33:10.303Z,101790.63
2023-05-09T03:35:41.662Z,101820.56
2023-05-09T03:38:08.647Z,101787.88
2023-05-09T03:40:35.434Z,101823.72
2023-05-09T03:43:01.820Z,101831.22
2023-05-09T03:45:28.388Z,101822.38
2023-05-09T03:47:56.001Z,101812.78
2023-05-09T03:50:25.726Z,101814.88
2023-05-09T03:52:55.479Z,101822.81
2023-05-09T03:55:24.353Z,101787.00
2023-05-09T03:57:51.364Z,101817.13
2023-05-09T04:00:19.450Z,101824.28
2023-05-09T04:02:46.460Z,101828.25
2023-05-09T04:05:13.507Z,101821.25
2023-05-09T04:07:40.315Z,101825.91
2023-05-09T04:10:08.633Z,101777.50
2023-05-09T04:12:35.716Z,101804.25
2023-05-09T04:15:02.634Z,101783.13
2023-05-09T04:17:35.691Z,101775.84
2023-05-09T04:20:06.417Z,101787.25
2023-05-09T04:22:34.378Z,101822.88
2023-05-09T04:25:04.267Z,101820.72
2023-05-09T04:27:30.730Z,101802.28
2023-05-09T04:29:57.428Z,101827.16
2023-05-09T04:32:24.250Z,101784.31
2023-05-09T04:34:50.905Z,101827.00
2023-05-09T04:37:17.705Z,101775.72
2023-05-09T04:39:44.410Z,101821.72
2023-05-09T04:42:11.047Z,101782.66
2023-05-09T04:44:37.691Z,101804.53
2023-05-09T04:47:04.289Z,101812.13
2023-05-09T04:49:32.297Z,101821.56
2023-05-09T04:51:59.356Z,101801.91
2023-05-09T04:54:33.562Z,101788.75
2023-05-09T04:57:09.832Z,101811.03
2023-05-09T04:59:41.952Z,101783.09
2023-05-09T05:02:08.527Z,101797.53
2023-05-09T05:04:36.382Z,101794.16
2023-05-09T05:07:03.719Z,101774.53
2023-05-09T05:09:33.276Z,101801.88
2023-05-09T05:12:02.416Z,101789.91
2023-05-09T05:14:31.121Z,101779.47
2023-05-09T05:16:57.591Z,101802.44
2023-05-09T05:19:24.051Z,101792.59
2023-05-09T05:21:54.255Z,101810.75
2023-05-09T05:24:20.894Z,101791.97
2023-05-09T05:26:47.462Z,101765.22
2023-05-09T05:29:14.006Z,101793.22
2023-05-09T05:31:40.694Z,101762.03
2023-05-09T05:34:10.347Z,101804.53
2023-05-09T05:36:37.409Z,101784.69
2023-05-09T05:39:05.676Z,101767.13
2023-05-09T05:41:34.530Z,101762.34
2023-05-09T05:44:01.116Z,101754.47
2023-05-09T05:46:27.892Z,101757.31
2023-05-09T05:48:54.414Z,101789.28
2023-05-09T05:51:25.217Z,101764.44
2023-05-09T05:53:57.698Z,101737.59
2023-05-09T05:56:25.054Z,101729.91
2023-05-09T05:58:51.609Z,101729.16
2023-05-09T06:01:22.445Z,101724.47
2023-05-09T06:03:56.279Z,101728.28
2023-05-09T06:06:23.846Z,101746.34
2023-05-09T06:08:53.886Z,101716.69
2023-05-09T06:11:25.130Z,101725.50
2023-05-09T06:13:51.963Z,101716.53
2023-05-09T06:16:23.330Z,101748.69
2023-05-09T06:18:55.782Z,101713.38
2023-05-09T06:21:24.557Z,101696.81
2023-05-09T06:24:07.761Z,101697.00
2023-05-09T06:26:39.950Z,101692.38
2023-05-09T06:29:07.860Z,101719.03
2023-05-09T06:31:43.887Z,101711.63
2023-05-09T06:34:10.638Z,101721.81
2023-05-09T06:36:39.531Z,101682.56
2023-05-09T06:39:06.238Z,101703.28
2023-05-09T06:41:35.160Z,101713.41
2023-05-09T06:44:05.039Z,101701.63
2023-05-09T06:46:31.732Z,101668.22
2023-05-09T06:49:02.633Z,101685.38
2023-05-09T06:51:29.491Z,101688.16
2023-05-09T06:53:57.210Z,101703.09
2023-05-09T06:56:26.538Z,101686.00
2023-05-09T06:58:53.628Z,101674.84
2023-05-09T07:01:20.135Z,101668.13
2023-05-09T07:03:47.629Z,101698.97
2023-05-09T07:06:14.291Z,101651.66
2023-05-09T07:08:40.847Z,101655.66
2023-05-09T07:11:11.069Z,101633.34
2023-05-09T07:13:43.503Z,101651.28
2023-05-09T07:16:27.488Z,101645.84
2023-05-09T07:19:06.331Z,101644.13
2023-05-09T07:21:44.871Z,101652.59
2023-05-09T07:24:11.654Z,101629.22
2023-05-09T07:26:38.470Z,101660.94
2023-05-09T07:31:46.060Z,101646.47
2023-05-09T07:34:12.560Z,101643.66
2023-05-09T07:39:05.622Z,101628.72
2023-05-09T07:41:32.483Z,101623.59
2023-05-09T07:44:01.486Z,101617.81
2023-05-09T07:46:28.388Z,101613.63
2023-05-09T07:48:55.038Z,101623.41
2023-05-09T07:51:21.928Z,101600.88
2023-05-09T07:53:59.280Z,101619.44
2023-05-09T07:56:26.548Z,101637.19
2023-05-09T07:58:55.076Z,101594.84
2023-05-09T08:01:25.200Z,101595.53
2023-05-09T08:03:56.533Z,101611.56
2023-05-09T08:06:26.391Z,101584.81
2023-05-09T08:09:01.461Z,101580.13
2023-05-09T08:11:28.248Z,101594.38
2023-05-09T08:13:55.005Z,101580.66
2023-05-09T08:16:21.980Z,101608.50
2023-05-09T08:18:49.264Z,101575.09
2023-05-09T08:21:15.688Z,101592.78
2023-05-09T08:23:42.138Z,101594.28
2023-05-09T08:26:08.637Z,101598.03
2023-05-09T08:28:35.122Z,101577.22
2023-05-09T08:31:02.296Z,101601.25
2023-05-09T08:33:28.957Z,101580.06
2023-05-09T08:35:56.435Z,101581.63
2023-05-09T08:38:24.387Z,101591.84
2023-05-09T08:40:51.041Z,101591.16
2023-05-09T08:43:20.635Z,101585.38
2023-05-09T08:45:53.802Z,101578.66
2023-05-09T08:48:22.817Z,101583.13
2023-05-09T08:50:49.948Z,101586.41
2023-05-09T08:53:16.792Z,101573.13
2023-05-09T08:55:45.397Z,101583.09
2023-05-09T08:58:14.617Z,101564.75
2023-05-09T09:00:42.064Z,101527.16
2023-05-09T09:03:11.972Z,101557.34
2023-05-09T09:05:42.582Z,101554.97
2023-05-09T09:08:14.235Z,101548.59
2023-05-09T09:10:47.691Z,101513.63
2023-05-09T09:13:15.876Z,101561.00
2023-05-09T09:15:45.382Z,101551.13
2023-05-09T09:18:16.460Z,101549.47
2023-05-09T09:20:56.508Z,101547.28
2023-05-09T09:23:25.504Z,101534.78
2023-05-09T09:26:00.507Z,101553.72
2023-05-09T09:28:28.377Z,101517.53
2023-05-09T09:30:54.939Z,101542.81
2023-05-09T09:33:22.989Z,101512.34
2023-05-09T09:35:51.237Z,101507.09
2023-05-09T09:38:21.986Z,101531.19
2023-05-09T09:40:51.401Z,101533.88
2023-05-09T09:43:22.364Z,101518.03
2023-05-09T09:45:51.047Z,101523.31
2023-05-09T09:48:17.634Z,101521.34
2023-05-09T09:50:44.178Z,101495.81
2023-05-09T09:53:10.884Z,101490.25
2023-05-09T09:55:37.389Z,101515.13
2023-05-09T09:58:16.520Z,101491.38
2023-05-09T10:00:43.101Z,101499.69
2023-05-09T10:03:15.153Z,101490.59
2023-05-09T10:05:43.626Z,101460.22
2023-05-09T10:08:10.200Z,101483.19
2023-05-09T10:10:37.948Z,101493.88
2023-05-09T10:13:12.488Z,101463.63
2023-05-09T10:15:52.121Z,101490.16
2023-05-09T10:18:27.256Z,101472.56
2023-05-09T10:20:55.067Z,101475.13
2023-05-09T10:23:23.437Z,101478.00
2023-05-09T10:26:00.286Z,101474.41
2023-05-09T10:28:32.108Z,101471.03
2023-05-09T10:31:10.321Z,101450.94
2023-05-09T10:33:49.245Z,101471.69
2023-05-09T10:36:19.591Z,101458.31
2023-05-09T10:38:48.329Z,101464.00
2023-05-09T10:41:19.040Z,101428.91
2023-05-09T10:43:48.283Z,101458.59
2023-05-09T10:46:16.089Z,101449.28
2023-05-09T10:48:46.014Z,101435.84
2023-05-09T10:51:13.272Z,101430.88
2023-05-09T10:53:48.797Z,101402.66
2023-05-09T10:56:35.989Z,101430.78
2023-05-09T10:59:02.774Z,101411.72
2023-05-09T11:01:37.526Z,101426.56
2023-05-09T11:04:16.784Z,101399.59
2023-05-09T11:06:47.804Z,101411.38
2023-05-09T11:09:39.242Z,101386.88
2023-05-09T11:12:06.169Z,101409.31
2023-05-09T11:14:33.864Z,101403.94
2023-05-09T11:17:04.507Z,101400.69
2023-05-09T11:19:49.689Z,101401.84
2023-05-09T11:22:17.676Z,101393.16
2023-05-09T11:24:49.237Z,101393.91
2023-05-09T11:27:22.926Z,101375.22
2023-05-09T11:29:54.438Z,101336.75
2023-05-09T11:32:23.207Z,101380.09
2023-05-09T11:34:50.005Z,101356.97
2023-05-09T11:37:17.796Z,101371.38
2023-05-09T11:39:56.448Z,101364.69
2023-05-09T11:42:28.637Z,101355.56
2023-05-09T11:44:57.230Z,101345.44
2023-05-09T11:47:24.972Z,101346.56
2023-05-09T11:49:52.149Z,101338.44
2023-05-09T11:52:20.327Z,101334.66
2023-05-09T11:54:46.953Z,101313.63
2023-05-09T11:57:24.882Z,101309.81
2023-05-09T11:59:51.458Z,101324.72
2023-05-09T12:02:18.178Z,101290.38
2023-05-09T12:04:44.711Z,101318.66
2023-05-09T12:07:14.438Z,101314.50
2023-05-09T12:09:41.083Z,101308.16
2023-05-09T12:12:11.856Z,101307.00
2023-05-09T12:14:39.641Z,101285.63
2023-05-09T12:17:14.758Z,101264.56
2023-05-09T12:19:41.304Z,101291.06
2023-05-09T12:22:09.998Z,101280.69
2023-05-09T12:24:39.835Z,101281.09
2023-05-09T12:27:08.040Z,101254.66
2023-05-09T12:29:35.148Z,101275.13
2023-05-09T12:32:01.669Z,101272.13
2023-05-09T12:34:28.865Z,101267.78
2023-05-09T12:36:55.313Z,101279.50
2023-05-09T12:39:23.048Z,101262.59
2023-05-09T12:42:00.962Z,101271.72
2023-05-09T12:44:29.696Z,101274.84
2023-05-09T12:47:02.016Z,101253.88
2023-05-09T12:49:31.745Z,101256.88
2023-05-09T12:52:02.983Z,101264.88
2023-05-09T12:54:31.202Z,101257.28
2023-05-09T12:56:58.675Z,101234.06
2023-05-09T12:59:28.882Z,101264.34
2023-05-09T13:02:00.646Z,101248.22
2023-05-09T13:04:28.916Z,101247.97
2023-05-09T13:06:57.606Z,101245.03
2023-05-09T13:09:27.939Z,101257.13
2023-05-09T13:11:54.546Z,101226.25
2023-05-09T13:14:26.550Z,101223.50
2023-05-09T13:16:54.322Z,101221.16
2023-05-09T13:19:20.843Z,101223.41
2023-05-09T13:21:47.949Z,101224.47
2023-05-09T13:24:14.398Z,101205.88
2023-05-09T13:26:40.921Z,101193.63
2023-05-09T13:29:07.909Z,101195.13
2023-05-09T13:31:34.552Z,101187.78
2023-05-09T13:34:01.213Z,101194.44
2023-05-09T13:36:27.675Z,101192.66
2023-05-09T13:38:54.303Z,101174.88
2023-05-09T13:41:22.547Z,101177.75
2023-05-09T13:43:54.882Z,101147.81
2023-05-09T13:46:21.540Z,101166.72
2023-05-09T13:48:50.628Z,101178.03
2023-05-09T13:51:18.644Z,101148.81
2023-05-09T13:53:46.338Z,101141.69
2023-05-09T13:56:14.640Z,101134.13
2023-05-09T13:58:41.263Z,101140.16
2023-05-09T14:01:13.817Z,101137.81
2023-05-09T14:03:40.307Z,101109.16
2023-05-09T14:06:08.748Z,101124.72
2023-05-09T14:08:35.207Z,101121.88
2023-05-09T14:11:01.922Z,101128.50
2023-05-09T14:13:28.717Z,101130.69
2023-05-09T14:15:55.317Z,101115.50
2023-05-09T14:18:21.792Z,101095.75
2023-05-09T14:20:48.448Z,101102.22
2023-05-09T14:23:14.841Z,101118.16
2023-05-09T14:25:41.281Z,101102.13
2023-05-09T14:28:09.568Z,101082.25
2023-05-09T14:30:36.425Z,101094.88
2023-05-09T14:33:08.414Z,101085.19
2023-05-09T14:35:34.958Z,101070.88
2023-05-09T14:38:01.813Z,101075.63
2023-05-09T14:40:32.182Z,101072.91
2023-05-09T14:42:59.524Z,101082.09
2023-05-09T14:45:26.508Z,101065.28
2023-05-09T14:47:53.503Z,101084.97
2023-05-09T14:50:21.783Z,101076.06
2023-05-09T14:52:52.742Z,101069.19
2023-05-09T14:55:19.910Z,101029.09
2023-05-09T14:57:46.427Z,101049.72
2023-05-09T15:00:21.405Z,101019.34
2023-05-09T15:02:49.340Z,101030.81
2023-05-09T15:05:16.866Z,101029.84
2023-05-09T15:07:43.449Z,101028.13
2023-05-09T15:10:10.475Z,101038.81
2023-05-09T15:12:36.956Z,101031.16
2023-05-09T15:15:15.147Z,100993.34
2023-05-09T15:17:42.703Z,101025.56
2023-05-09T15:20:09.745Z,101032.16
2023-05-09T15:22:38.660Z,101022.28
2023-05-09T15:25:06.296Z,101020.28
2023-05-09T15:27:32.988Z,101003.75
2023-05-09T15:29:59.448Z,101032.75
2023-05-09T15:32:26.180Z,101016.16
2023-05-09T15:34:52.967Z,101008.16
2023-05-09T15:37:19.429Z,101002.91
2023-05-09T15:39:46.369Z,100972.31
2023-05-09T15:42:13.295Z,100995.53
2023-05-09T15:44:40.984Z,101003.88
2023-05-09T15:47:08.153Z,100996.97
2023-05-09T15:49:34.932Z,100993.59
2023-05-09T15:52:06.680Z,100985.66
2023-05-09T15:54:34.189Z,100998.03
2023-05-09T15:57:01.587Z,100966.84
2023-05-09T15:59:28.361Z,100983.53
2023-05-09T16:01:55.166Z,100989.34
2023-05-09T16:04:22.196Z,100947.06
2023-05-09T16:06:49.113Z,100959.19
2023-05-09T16:09:15.835Z,100980.25
2023-05-09T16:11:43.080Z,100946.97
2023-05-09T16:14:11.834Z,100978.03
2023-05-09T16:16:42.780Z,100962.38
2023-05-09T16:19:09.937Z,100966.50
2023-05-09T16:21:37.826Z,100971.59
2023-05-09T16:24:05.050Z,100970.31
2023-05-09T16:26:31.586Z,100959.97
2023-05-09T16:28:58.097Z,100964.69
2023-05-09T16:31:26.641Z,100964.22
2023-05-09T16:33:54.164Z,100952.34
2023-05-09T16:36:21.332Z,100978.91
2023-05-09T16:38:48.558Z,100950.31
2023-05-09T16:41:16.839Z,100955.06
2023-05-09T16:43:43.465Z,100912.00
2023-05-09T16:46:11.053Z,100923.09
2023-05-09T16:48:37.591Z,100951.97
2023-05-09T16:51:04.820Z,100958.56
2023-05-09T16:53:31.283Z,100946.22
2023-05-09T16:55:57.748Z,100955.91
2023-05-09T16:58:25.254Z,100936.72
2023-05-09T17:00:51.948Z,100946.00
2023-05-09T17:03:18.450Z,100951.31
2023-05-09T17:05:44.928Z,100941.69
2023-05-09T17:08:11.482Z,100924.03
2023-05-09T17:10:39.490Z,100941.59
2023-05-09T17:13:08.753Z,100929.75
2023-05-09T17:15:35.777Z,100933.59
2023-05-09T17:18:03.126Z,100909.88
2023-05-09T17:20:29.975Z,100904.22
2023-05-09T17:22:57.041Z,100930.81
2023-05-09T17:25:31.259Z,100880.84
2023-05-09T17:27:57.827Z,100917.28
2023-05-09T17:30:24.467Z,100908.47
2023-05-09T17:32:51.029Z,100927.19
2023-05-09T17:35:20.036Z,100897.91
2023-05-09T17:37:46.876Z,100877.59
2023-05-09T17:40:13.815Z,100889.50
2023-05-09T17:42:41.853Z,100889.00
2023-05-09T17:45:10.514Z,100907.06
2023-05-09T17:47:37.707Z,100907.06
2023-05-09T17:50:04.857Z,100876.78
2023-05-09T17:52:31.692Z,100890.56
2023-05-09T17:54:58.293Z,100921.03
2023-05-09T17:57:24.813Z,100891.63
2023-05-09T17:59:52.456Z,100884.06
2023-05-09T18:02:23.904Z,100870.28
2023-05-09T18:04:51.441Z,100891.03
2023-05-09T18:07:18.266Z,100887.63
2023-05-09T18:09:44.664Z,100913.09
2023-05-09T18:12:11.197Z,100902.16
2023-05-09T18:14:39.571Z,100885.25
2023-05-09T18:17:06.125Z,100851.81
2023-05-09T18:19:34.553Z,100870.72
2023-05-09T18:22:01.683Z,100861.75
2023-05-09T18:24:33.438Z,100869.44
2023-05-09T18:26:59.888Z,100882.31
2023-05-09T18:29:27.322Z,100885.06
2023-05-09T18:31:56.091Z,100862.28
2023-05-09T18:34:23.358Z,100869.25
2023-05-09T18:36:52.474Z,100873.81
2023-05-09T18:39:19.491Z,100872.50
2023-05-09T18:41:46.017Z,100856.75
2023-05-09T18:44:12.495Z,100880.22
2023-05-09T18:46:39.064Z,100878.03
2023-05-09T18:49:06.959Z,100898.84
2023-05-09T18:51:35.744Z,100890.47
2023-05-09T18:54:03.147Z,100853.88
2023-05-09T18:56:29.697Z,100863.41
2023-05-09T18:58:56.535Z,100856.44
2023-05-09T19:01:24.494Z,100885.16
2023-05-09T19:03:54.361Z,100884.41
2023-05-09T19:06:21.848Z,100888.78
2023-05-09T19:08:48.707Z,100889.41
2023-05-09T19:11:15.146Z,100892.13
2023-05-09T19:13:48.502Z,100898.31
2023-05-09T19:16:17.415Z,100890.34
2023-05-09T19:18:44.016Z,100891.63
2023-05-09T19:21:11.040Z,100854.97
2023-05-09T19:23:40.689Z,100877.16
2023-05-09T19:26:45.983Z,100891.69
2023-05-09T19:29:13.081Z,100852.00
2023-05-09T19:31:39.691Z,100845.28
2023-05-09T19:34:06.419Z,100844.66
2023-05-09T19:36:34.463Z,100890.91
2023-05-09T19:39:01.015Z,100886.88
2023-05-09T19:41:27.522Z,100879.31
2023-05-09T19:43:54.323Z,100867.78
2023-05-09T19:46:24.866Z,100881.88
2023-05-09T19:48:52.047Z,100858.56
2023-05-09T19:51:18.617Z,100870.28
2023-05-09T19:53:46.848Z,100869.06
2023-05-09T19:56:13.867Z,100857.41
2023-05-09T19:58:40.485Z,100873.38
2023-05-09T20:01:07.295Z,100866.34
2023-05-09T20:03:37.099Z,100869.00
2023-05-09T20:06:04.216Z,100856.66
2023-05-09T20:08:31.287Z,100835.88
2023-05-09T20:10:57.762Z,100864.50
2023-05-09T20:13:24.404Z,100860.25
2023-05-09T20:15:51.117Z,100835.16
2023-05-09T20:18:17.683Z,100826.31
2023-05-09T20:20:46.971Z,100850.81
2023-05-09T20:23:13.472Z,100855.41
2023-05-09T20:25:40.035Z,100831.53
2023-05-09T20:28:12.070Z,100825.91
2023-05-09T20:30:38.957Z,100835.81
2023-05-09T20:33:05.902Z,100824.66
2023-05-09T20:35:32.710Z,100817.81
2023-05-09T20:37:59.207Z,100839.81
2023-05-09T20:40:25.813Z,100822.28
2023-05-09T20:42:59.612Z,100794.22
2023-05-09T20:45:26.415Z,100803.91
2023-05-09T20:47:52.877Z,100839.38
2023-05-09T20:50:19.568Z,100816.31
2023-05-09T20:52:47.660Z,100799.53
2023-05-09T20:55:14.244Z,100807.06
2023-05-09T20:57:49.555Z,100810.13
2023-05-09T21:00:16.548Z,100811.25
2023-05-09T21:02:47.198Z,100785.09
2023-05-09T21:05:14.296Z,100776.16
2023-05-09T21:07:40.905Z,100805.50
2023-05-09T21:10:17.083Z,100780.31
2023-05-09T21:12:45.741Z,100813.72
2023-05-09T21:15:12.408Z,100807.84
2023-05-09T21:17:40.503Z,100774.22
2023-05-09T21:20:08.095Z,100761.13
2023-05-09T21:22:34.601Z,100771.78
2023-05-09T21:25:01.212Z,100772.38
2023-05-09T21:27:30.733Z,100797.31
2023-05-09T21:29:58.308Z,100802.13
2023-05-09T21:32:26.062Z,100797.31
2023-05-09T21:41:38.408Z,100805.19
2023-05-09T21:44:05.751Z,100771.66
2023-05-09T21:46:35.180Z,100778.22
2023-05-09T21:49:02.049Z,100781.66
2023-05-09T21:51:28.669Z,100793.28
2023-05-09T21:53:55.446Z,100761.84
2023-05-09T21:56:22.264Z,100789.59
2023-05-09T21:58:48.822Z,100767.44
2023-05-09T22:01:16.692Z,100774.41
2023-05-09T22:03:43.454Z,100772.81
2023-05-09T22:06:10.018Z,100762.72
2023-05-09T22:08:36.573Z,100756.44
2023-05-09T22:11:03.298Z,100777.75
2023-05-09T22:13:29.876Z,100748.50
2023-05-09T22:15:56.684Z,100774.94
2023-05-09T22:18:24.660Z,100783.88
2023-05-09T22:20:53.819Z,100740.09
2023-05-09T22:23:22.402Z,100792.63
2023-05-09T22:25:49.267Z,100747.28
2023-05-09T22:28:15.801Z,100788.63
2023-05-09T22:30:42.259Z,100753.53
2023-05-09T22:33:15.081Z,100775.88
2023-05-09T22:39:36.877Z,100752.50
2023-05-09T22:42:07.033Z,100775.88
2023-05-09T22:44:33.679Z,100758.38
2023-05-09T22:47:04.724Z,100731.81
2023-05-09T22:49:46.970Z,100734.50
2023-05-09T22:52:16.101Z,100739.72
2023-05-09T22:54:44.114Z,100758.81
2023-05-09T22:57:10.981Z,100729.66
2023-05-09T22:59:39.849Z,100763.56
2023-05-09T23:02:06.473Z,100740.72
2023-05-09T23:04:32.975Z,100743.03
2023-05-09T23:06:59.493Z,100742.34
2023-05-09T23:09:27.726Z,100752.50
2023-05-09T23:11:55.599Z,100739.03
2023-05-09T23:14:24.670Z,100716.22
2023-05-09T23:16:51.489Z,100703.53
2023-05-09T23:19:18.106Z,100734.03
2023-05-09T23:25:10.768Z,100734.28
2023-05-09T23:27:40.874Z,100756.63
2023-05-09T23:30:11.199Z,100746.22
2023-05-09T23:32:37.816Z,100737.69
2023-05-09T23:35:04.828Z,100746.97
2023-05-09T23:37:38.132Z,100744.22
2023-05-09T23:40:05.079Z,100743.94
2023-05-09T23:42:33.822Z,100733.69
2023-05-09T23:45:00.363Z,100729.16
2023-05-09T23:47:27.034Z,100730.63
2023-05-09T23:50:01.984Z,100739.81
2023-05-09T23:52:28.483Z,100732.13
2023-05-09T23:54:55.036Z,100720.88
2023-05-09T23:57:24.874Z,100730.63
2023-05-09T23:59:51.444Z,100721.25
